createdAt,value
2023-02-22T00:02:10.908Z,14.45
2023-02-22T00:04:41.349Z,15.38
2023-02-22T00:07:11.640Z,14.02
2023-02-22T00:09:41.399Z,13.18
2023-02-22T00:12:11.440Z,13.40
2023-02-22T00:14:43.814Z,13.93
2023-02-22T00:17:13.608Z,12.20
2023-02-22T00:19:43.335Z,12.43
2023-02-22T00:22:13.170Z,13.07
2023-02-22T00:24:42.933Z,11.45
2023-02-22T00:27:12.756Z,11.65
2023-02-22T00:29:47.465Z,11.32
2023-02-22T00:32:18.034Z,10.95
2023-02-22T00:34:48.371Z,11.02
2023-02-22T00:37:18.167Z,10.90
2023-02-22T00:39:49.517Z,10.95
2023-02-22T00:42:20.047Z,10.50
2023-02-22T00:44:52.520Z,10.77
2023-02-22T00:47:22.448Z,10.82
2023-02-22T00:49:52.162Z,10.65
2023-02-22T00:52:22.008Z,10.70
2023-02-22T00:54:51.772Z,10.52
2023-02-22T00:57:21.872Z,10.45
2023-02-22T00:59:54.206Z,11.77
2023-02-22T01:02:24.818Z,11.40
2023-02-22T01:04:54.634Z,11.10
2023-02-22T01:07:24.718Z,11.52
2023-02-22T01:09:54.491Z,11.10
2023-02-22T01:12:24.248Z,11.07
2023-02-22T01:14:58.191Z,10.82
2023-02-22T01:17:28.538Z,10.23
2023-02-22T01:19:58.395Z,9.85
2023-02-22T01:22:28.332Z,10.13
2023-02-22T01:24:58.076Z,10.23
2023-02-22T01:27:28.107Z,10.55
2023-02-22T01:30:00.432Z,10.27
2023-02-22T01:32:30.733Z,9.82
2023-02-22T01:35:00.462Z,10.10
2023-02-22T01:37:30.246Z,9.73
2023-02-22T01:39:59.967Z,9.55
2023-02-22T01:42:30.479Z,9.70
2023-02-22T01:45:30.615Z,10.00
2023-02-22T01:48:06.927Z,10.13
2023-02-22T01:50:40.331Z,9.20
2023-02-22T01:53:12.042Z,9.38
2023-02-22T01:55:42.159Z,9.93
2023-02-22T01:58:12.801Z,8.95
2023-02-22T02:00:44.773Z,9.35
2023-02-22T02:03:21.717Z,9.68
2023-02-22T02:05:53.626Z,10.05
2023-02-22T02:08:31.919Z,10.02
2023-02-22T02:11:04.371Z,9.75
2023-02-22T02:13:34.291Z,10.48
2023-02-22T02:16:04.084Z,9.88
2023-02-22T02:18:36.480Z,9.77
2023-02-22T02:21:43.887Z,10.00
2023-02-22T02:24:39.675Z,10.13
2023-02-22T02:27:15.607Z,9.25
2023-02-22T02:30:26.331Z,10.18
2023-02-22T02:33:02.952Z,10.68
2023-02-22T02:35:43.528Z,9.88
2023-02-22T02:38:19.316Z,10.35
2023-02-22T02:40:54.016Z,10.10
2023-02-22T02:43:32.032Z,10.65
2023-02-22T02:46:08.383Z,10.40
2023-02-22T02:48:45.172Z,9.75
2023-02-22T02:51:16.380Z,10.23
2023-02-22T02:53:51.372Z,9.90
2023-02-22T02:56:23.385Z,9.88
2023-02-22T02:58:54.878Z,9.25
2023-02-22T03:01:40.653Z,9.50
2023-02-22T03:04:31.702Z,9.82
2023-02-22T03:07:13.686Z,9.98
2023-02-22T03:09:58.530Z,9.10
2023-02-22T03:12:38.493Z,9.63
2023-02-22T03:15:17.267Z,10.07
2023-02-22T03:17:55.238Z,10.18
2023-02-22T03:20:32.819Z,9.55
2023-02-22T03:23:09.881Z,9.40
2023-02-22T03:25:42.259Z,9.82
2023-02-22T03:28:15.347Z,10.65
2023-02-22T03:30:50.941Z,9.73
2023-02-22T03:33:28.812Z,10.13
2023-02-22T03:36:06.110Z,10.57
2023-02-22T03:38:39.844Z,10.27
2023-02-22T03:41:12.447Z,11.25
2023-02-22T03:43:46.161Z,11.00
2023-02-22T03:46:19.286Z,10.90
2023-02-22T03:48:54.384Z,10.32
2023-02-22T03:51:27.514Z,10.38
2023-02-22T03:53:57.609Z,10.60
2023-02-22T03:56:36.418Z,10.20
2023-02-22T03:59:08.185Z,9.95
2023-02-22T04:01:38.465Z,10.38
2023-02-22T04:04:08.238Z,10.88
2023-02-22T04:06:40.688Z,10.25
2023-02-22T04:09:10.472Z,10.10
2023-02-22T04:11:40.292Z,9.98
2023-02-22T04:14:10.038Z,9.90
2023-02-22T04:16:39.882Z,9.63
2023-02-22T04:19:09.655Z,9.38
2023-02-22T04:21:42.099Z,9.90
2023-02-22T04:24:11.874Z,9.70
2023-02-22T04:26:41.655Z,9.77
2023-02-22T04:29:11.454Z,9.48
2023-02-22T04:31:41.339Z,9.88
2023-02-22T04:34:11.163Z,9.70
2023-02-22T04:36:44.709Z,9.63
2023-02-22T04:39:15.078Z,9.60
2023-02-22T04:41:44.815Z,10.10
2023-02-22T04:44:14.593Z,9.32
2023-02-22T04:46:44.395Z,9.85
2023-02-22T04:49:14.133Z,9.98
2023-02-22T04:51:46.483Z,9.40
2023-02-22T04:54:17.492Z,9.75
2023-02-22T04:56:47.568Z,9.45
2023-02-22T04:59:17.396Z,8.98
2023-02-22T05:01:47.192Z,9.23
2023-02-22T05:04:16.950Z,8.82
2023-02-22T05:06:49.471Z,9.43
2023-02-22T05:09:19.274Z,9.20
2023-02-22T05:11:49.444Z,8.55
2023-02-22T05:14:19.414Z,8.88
2023-02-22T05:16:51.434Z,9.27
2023-02-22T05:19:21.206Z,9.10
2023-02-22T05:21:53.635Z,9.57
2023-02-22T05:24:23.498Z,9.30
2023-02-22T05:26:53.909Z,9.40
2023-02-22T05:29:23.763Z,8.55
2023-02-22T05:31:53.592Z,8.00
2023-02-22T05:34:24.023Z,9.35
2023-02-22T05:36:56.688Z,9.25
2023-02-22T05:39:26.530Z,9.10
2023-02-22T05:41:56.270Z,8.52
2023-02-22T05:44:26.492Z,9.65
2023-02-22T05:46:56.223Z,10.02
2023-02-22T05:49:26.059Z,9.82
2023-02-22T05:51:59.842Z,9.27
2023-02-22T05:54:29.680Z,9.75
2023-02-22T05:56:59.458Z,9.68
2023-02-22T05:59:30.335Z,9.43
2023-02-22T06:02:00.209Z,10.07
2023-02-22T06:04:30.503Z,8.70
2023-02-22T06:07:03.302Z,10.38
2023-02-22T06:09:33.046Z,9.60
2023-02-22T06:12:02.815Z,10.55
2023-02-22T06:14:32.623Z,10.50
2023-02-22T06:17:02.420Z,8.98
2023-02-22T06:19:32.207Z,9.85
2023-02-22T06:22:05.264Z,9.27
2023-02-22T06:24:35.097Z,9.68
2023-02-22T06:27:05.393Z,9.15
2023-02-22T06:29:35.235Z,9.68
2023-02-22T06:32:05.212Z,9.20
2023-02-22T06:34:35.195Z,10.20
2023-02-22T06:37:07.618Z,9.60
2023-02-22T06:39:37.387Z,9.88
2023-02-22T06:42:07.591Z,8.95
2023-02-22T06:44:37.457Z,10.23
2023-02-22T06:47:07.352Z,10.00
2023-02-22T06:49:37.152Z,9.50
2023-02-22T06:52:11.224Z,9.60
2023-02-22T06:54:43.512Z,10.15
2023-02-22T06:57:13.239Z,9.52
2023-02-22T06:59:43.035Z,9.77
2023-02-22T07:02:13.594Z,9.18
2023-02-22T07:04:43.749Z,8.57
2023-02-22T07:07:16.452Z,9.10
2023-02-22T07:09:49.137Z,9.13
2023-02-22T07:12:18.998Z,8.57
2023-02-22T07:14:48.819Z,9.43
2023-02-22T07:17:18.987Z,8.50
2023-02-22T07:19:48.706Z,8.65
2023-02-22T07:22:21.022Z,8.82
2023-02-22T07:24:50.793Z,8.52
2023-02-22T07:27:20.688Z,8.65
2023-02-22T07:29:50.576Z,8.48
2023-02-22T07:32:20.542Z,8.45
2023-02-22T07:34:50.372Z,8.82
2023-02-22T07:37:23.875Z,8.50
2023-02-22T07:39:53.746Z,9.13
2023-02-22T07:42:23.778Z,8.38
2023-02-22T07:44:53.560Z,8.73
2023-02-22T07:47:23.329Z,8.85
2023-02-22T07:49:54.448Z,9.32
2023-02-22T07:52:26.893Z,8.98
2023-02-22T07:54:56.627Z,8.10
2023-02-22T07:57:26.601Z,8.50
2023-02-22T07:59:56.363Z,8.95
2023-02-22T08:02:28.472Z,9.38
2023-02-22T08:04:58.231Z,8.73
2023-02-22T08:07:30.659Z,9.15
2023-02-22T08:10:00.407Z,9.95
2023-02-22T08:12:30.159Z,9.60
2023-02-22T08:14:59.918Z,10.30
2023-02-22T08:17:29.848Z,10.02
2023-02-22T08:19:59.907Z,10.15
2023-02-22T08:22:32.281Z,10.43
2023-02-22T08:25:02.039Z,9.88
2023-02-22T08:27:33.941Z,9.60
2023-02-22T08:30:03.770Z,10.32
2023-02-22T08:32:33.997Z,11.00
2023-02-22T08:35:04.686Z,10.38
2023-02-22T08:37:37.079Z,10.70
2023-02-22T08:40:07.364Z,10.32
2023-02-22T08:42:37.148Z,9.95
2023-02-22T08:45:07.876Z,10.35
2023-02-22T08:47:39.587Z,9.98
2023-02-22T08:50:10.500Z,9.50
2023-02-22T08:52:42.839Z,10.05
2023-02-22T08:55:12.691Z,9.32
2023-02-22T08:57:42.473Z,10.35
2023-02-22T09:00:13.983Z,8.23
2023-02-22T09:02:43.820Z,9.20
2023-02-22T09:05:13.983Z,9.57
2023-02-22T09:07:47.502Z,9.70
2023-02-22T09:10:18.356Z,8.10
2023-02-22T09:12:48.447Z,7.95
2023-02-22T09:15:18.372Z,13.65
2023-02-22T09:17:48.461Z,8.98
2023-02-22T09:20:21.899Z,7.78
2023-02-22T09:22:55.173Z,7.63
2023-02-22T09:25:27.260Z,8.45
2023-02-22T09:27:57.729Z,8.13
2023-02-22T09:30:32.132Z,8.18
2023-02-22T09:33:04.497Z,8.32
2023-02-22T09:35:36.363Z,8.88
2023-02-22T09:38:09.041Z,8.65
2023-02-22T09:40:45.245Z,9.20
2023-02-22T09:43:25.468Z,8.65
2023-02-22T09:46:12.036Z,9.25
2023-02-22T09:48:53.560Z,9.38
2023-02-22T09:51:27.437Z,9.82
2023-02-22T09:54:05.126Z,9.25
2023-02-22T09:56:36.696Z,8.63
2023-02-22T09:59:09.440Z,9.23
2023-02-22T10:01:43.530Z,8.75
2023-02-22T10:04:22.146Z,8.40
2023-02-22T10:07:06.067Z,8.93
2023-02-22T10:09:43.822Z,8.88
2023-02-22T10:12:17.443Z,8.85
2023-02-22T10:15:01.523Z,10.23
2023-02-22T10:17:36.063Z,9.25
2023-02-22T10:23:04.917Z,8.55
2023-02-22T10:25:40.055Z,9.15
2023-02-22T10:28:18.855Z,9.75
2023-02-22T10:30:56.802Z,9.38
2023-02-22T10:33:29.793Z,8.68
2023-02-22T10:35:59.887Z,9.30
2023-02-22T10:38:32.286Z,10.02
2023-02-22T10:41:18.766Z,10.00
2023-02-22T10:43:48.527Z,9.15
2023-02-22T10:46:23.125Z,8.13
2023-02-22T10:48:57.048Z,8.38
2023-02-22T10:51:26.797Z,8.27
2023-02-22T10:54:04.160Z,8.85
2023-02-22T10:56:36.585Z,8.65
2023-02-22T10:59:07.777Z,7.95
2023-02-22T11:01:41.099Z,8.95
2023-02-22T11:04:15.869Z,8.93
2023-02-22T11:06:48.349Z,8.95
2023-02-22T11:09:22.462Z,8.60
2023-02-22T11:12:13.629Z,8.18
2023-02-22T11:14:43.443Z,9.45
2023-02-22T11:17:17.569Z,8.45
2023-02-22T11:19:50.131Z,8.80
2023-02-22T11:22:26.057Z,9.23
2023-02-22T11:24:58.211Z,9.55
2023-02-22T11:27:43.323Z,8.40
2023-02-22T11:30:36.253Z,9.60
2023-02-22T11:33:23.950Z,9.02
2023-02-22T11:35:56.500Z,8.77
2023-02-22T11:38:28.371Z,9.15
2023-02-22T11:41:17.540Z,9.98
2023-02-22T11:43:51.664Z,8.50
2023-02-22T11:46:26.279Z,8.63
2023-02-22T11:49:01.360Z,9.02
2023-02-22T11:51:41.824Z,8.75
2023-02-22T11:54:28.577Z,9.25
2023-02-22T11:57:10.942Z,8.90
2023-02-22T11:59:55.732Z,8.98
2023-02-22T12:07:50.627Z,8.48
2023-02-22T12:10:29.329Z,8.98
2023-02-22T12:13:13.170Z,9.13
2023-02-22T12:15:53.374Z,9.13
2023-02-22T12:18:31.475Z,9.20
2023-02-22T12:21:05.663Z,9.75
2023-02-22T12:23:50.695Z,9.75
2023-02-22T12:26:27.772Z,10.02
2023-02-22T12:29:01.939Z,9.90
2023-02-22T12:31:39.171Z,9.25
2023-02-22T12:34:15.542Z,9.32
2023-02-22T12:36:50.454Z,10.15
2023-02-22T12:39:52.832Z,9.38
2023-02-22T12:42:29.334Z,9.52
2023-02-22T12:45:08.356Z,10.20
2023-02-22T12:47:48.259Z,9.70
2023-02-22T12:50:23.553Z,9.85
2023-02-22T12:52:58.671Z,9.20
2023-02-22T12:55:31.656Z,9.02
2023-02-22T12:58:09.904Z,9.88
2023-02-22T13:00:47.113Z,9.93
2023-02-22T13:03:31.724Z,10.32
2023-02-22T13:06:21.691Z,9.38
2023-02-22T13:09:03.796Z,9.55
2023-02-22T13:11:42.742Z,11.05
2023-02-22T13:14:30.146Z,9.63
2023-02-22T13:17:06.644Z,9.73
2023-02-22T13:19:46.250Z,9.90
2023-02-22T13:22:23.343Z,9.85
2023-02-22T13:25:04.972Z,10.07
2023-02-22T13:27:42.981Z,10.00
2023-02-22T13:30:22.036Z,10.77
2023-02-22T13:33:19.494Z,11.45
2023-02-22T13:36:17.350Z,10.98
2023-02-22T13:39:07.106Z,10.63
2023-02-22T13:41:55.242Z,10.32
2023-02-22T13:44:59.674Z,11.55
2023-02-22T13:47:57.707Z,10.93
2023-02-22T13:50:43.284Z,11.27
2023-02-22T13:53:22.557Z,11.23
2023-02-22T13:55:59.348Z,11.27
2023-02-22T13:58:29.547Z,11.18
2023-02-22T14:01:01.330Z,10.63
2023-02-22T14:03:40.984Z,10.52
2023-02-22T14:06:14.015Z,9.75
2023-02-22T14:08:47.601Z,10.60
2023-02-22T14:11:59.449Z,11.13
2023-02-22T14:14:29.384Z,11.88
2023-02-22T14:17:24.482Z,11.45
2023-02-22T14:20:04.706Z,11.70
2023-02-22T14:22:34.665Z,11.48
2023-02-22T14:25:08.737Z,12.75
2023-02-22T14:27:43.649Z,12.05
2023-02-22T14:30:28.492Z,12.00
2023-02-22T14:35:41.211Z,11.75
2023-02-22T14:38:21.395Z,11.45
2023-02-22T14:40:55.532Z,12.13
2023-02-22T14:43:28.433Z,12.05
2023-02-22T14:46:05.409Z,11.85
2023-02-22T14:48:42.733Z,12.27
2023-02-22T14:51:22.404Z,11.73
2023-02-22T14:53:56.785Z,11.95
2023-02-22T14:56:36.194Z,12.02
2023-02-22T14:59:19.521Z,12.18
2023-02-22T15:02:05.767Z,12.18
2023-02-22T15:04:43.935Z,12.10
2023-02-22T15:07:27.619Z,11.60
2023-02-22T15:10:21.131Z,11.82
2023-02-22T15:13:09.066Z,11.38
2023-02-22T15:15:43.805Z,11.48
2023-02-22T15:18:22.121Z,11.43
2023-02-22T15:20:56.436Z,11.10
2023-02-22T15:26:04.566Z,11.65
2023-02-22T15:28:38.366Z,11.73
2023-02-22T15:31:19.129Z,11.32
2023-02-22T15:33:52.952Z,11.60
2023-02-22T15:36:24.480Z,12.35
2023-02-22T15:38:57.868Z,11.93
2023-02-22T15:41:31.975Z,11.52
2023-02-22T15:44:21.326Z,12.15
2023-02-22T15:46:55.218Z,11.68
2023-02-22T15:49:26.307Z,12.20
2023-02-22T15:52:09.542Z,11.60
2023-02-22T15:54:49.025Z,12.30
2023-02-22T15:57:21.192Z,12.30
2023-02-22T15:59:58.140Z,11.85
2023-02-22T16:02:35.743Z,11.02
2023-02-22T16:05:16.768Z,11.75
2023-02-22T16:07:50.039Z,11.85
2023-02-22T16:10:26.823Z,12.05
2023-02-22T16:13:11.125Z,11.55
2023-02-22T16:15:57.268Z,11.65
2023-02-22T16:18:31.284Z,11.25
2023-02-22T16:21:11.759Z,11.98
2023-02-22T16:23:49.686Z,11.88
2023-02-22T16:26:24.507Z,11.90
2023-02-22T16:28:58.616Z,11.02
2023-02-22T16:31:33.950Z,11.80
2023-02-22T16:34:05.224Z,12.13
2023-02-22T16:36:44.196Z,12.25
2023-02-22T16:39:21.678Z,11.80
2023-02-22T16:41:52.872Z,12.45
2023-02-22T16:44:23.261Z,12.07
2023-02-22T16:47:01.502Z,12.93
2023-02-22T16:49:31.287Z,11.63
2023-02-22T16:52:03.432Z,11.55
2023-02-22T16:54:37.276Z,11.82
2023-02-22T16:57:07.673Z,13.10
2023-02-22T16:59:41.388Z,14.25
2023-02-22T17:02:16.852Z,12.93
2023-02-22T17:04:50.625Z,15.18
2023-02-22T17:07:23.905Z,12.57
2023-02-22T17:09:53.775Z,12.10
2023-02-22T17:12:23.547Z,13.75
2023-02-22T17:14:53.341Z,14.05
2023-02-22T17:17:26.489Z,12.60
2023-02-22T17:19:56.969Z,13.75
2023-02-22T17:22:26.759Z,12.05
2023-02-22T17:24:56.589Z,12.50
2023-02-22T17:27:26.385Z,12.32
2023-02-22T17:29:56.160Z,11.80
2023-02-22T17:32:28.664Z,11.77
2023-02-22T17:34:58.550Z,12.45
2023-02-22T17:37:28.291Z,12.65
2023-02-22T17:39:58.060Z,13.00
2023-02-22T17:42:27.879Z,12.60
2023-02-22T17:44:57.674Z,13.45
2023-02-22T17:47:30.023Z,13.35
2023-02-22T17:50:00.221Z,13.57
2023-02-22T17:52:30.222Z,12.75
2023-02-22T17:55:00.027Z,12.38
2023-02-22T17:57:30.216Z,14.30
2023-02-22T18:00:01.696Z,15.60
2023-02-22T18:02:34.629Z,14.90
2023-02-22T18:05:04.478Z,13.88
2023-02-22T18:07:34.270Z,13.80
2023-02-22T18:10:05.360Z,14.10
2023-02-22T18:12:35.451Z,13.15
2023-02-22T18:15:05.230Z,14.38
2023-02-22T18:17:38.663Z,13.05
2023-02-22T18:20:14.394Z,14.95
2023-02-22T18:22:45.711Z,13.75
2023-02-22T18:25:17.087Z,13.60
2023-02-22T18:27:46.844Z,13.27
2023-02-22T18:30:16.828Z,13.88
2023-02-22T18:32:49.244Z,12.73
2023-02-22T18:35:19.074Z,13.80
2023-02-22T18:37:48.856Z,14.00
2023-02-22T18:40:19.031Z,13.85
2023-02-22T18:42:49.327Z,14.15
2023-02-22T18:45:19.370Z,14.80
2023-02-22T18:47:52.059Z,14.20
2023-02-22T18:50:21.976Z,15.13
2023-02-22T18:52:51.745Z,15.18
2023-02-22T18:55:23.462Z,14.45
2023-02-22T18:57:53.318Z,13.75
2023-02-22T19:00:28.594Z,14.15
2023-02-22T19:03:01.944Z,15.52
2023-02-22T19:05:33.339Z,15.30
2023-02-22T19:08:04.152Z,16.08
2023-02-22T19:10:34.395Z,16.63
2023-02-22T19:13:04.141Z,15.65
2023-02-22T19:15:33.931Z,15.88
2023-02-22T19:18:06.716Z,16.30
2023-02-22T19:20:36.531Z,16.02
2023-02-22T19:23:10.299Z,16.52
2023-02-22T19:25:43.453Z,18.27
2023-02-22T19:28:15.594Z,16.23
2023-02-22T19:30:45.831Z,15.45
2023-02-22T19:33:18.192Z,16.33
2023-02-22T19:35:48.184Z,15.95
2023-02-22T19:38:18.063Z,17.48
2023-02-22T19:40:48.407Z,16.50
2023-02-22T19:43:18.158Z,17.75
2023-02-22T19:45:47.995Z,17.35
2023-02-22T19:48:20.778Z,17.80
2023-02-22T19:50:57.753Z,16.65
2023-02-22T19:53:27.589Z,18.00
2023-02-22T19:55:57.338Z,17.17
2023-02-22T19:58:27.124Z,18.02
2023-02-22T20:00:56.890Z,18.92
2023-02-22T20:03:30.844Z,18.77
2023-02-22T20:06:00.728Z,19.05
2023-02-22T20:08:30.511Z,20.25
2023-02-22T20:11:01.115Z,20.10
2023-02-22T20:13:31.047Z,19.17
2023-02-22T20:16:00.853Z,19.05
2023-02-22T20:18:33.639Z,18.88
2023-02-22T20:21:03.958Z,19.80
2023-02-22T20:23:33.699Z,19.88
2023-02-22T20:26:04.403Z,19.60
2023-02-22T20:28:34.230Z,19.80
2023-02-22T20:31:03.958Z,21.75
2023-02-22T20:33:36.543Z,20.80
2023-02-22T20:36:07.660Z,21.42
2023-02-22T20:38:37.491Z,20.73
2023-02-22T20:41:09.562Z,21.23
2023-02-22T20:43:39.629Z,21.17
2023-02-22T20:46:10.146Z,22.80
2023-02-22T20:48:42.492Z,21.70
2023-02-22T20:51:14.014Z,21.45
2023-02-22T20:53:45.051Z,22.33
2023-02-22T20:56:16.713Z,23.27
2023-02-22T20:58:46.539Z,23.33
2023-02-22T21:01:19.801Z,21.50
2023-02-22T21:03:53.566Z,22.35
2023-02-22T21:06:24.860Z,23.85
2023-02-22T21:08:57.141Z,22.02
2023-02-22T21:11:30.108Z,23.77
2023-02-22T21:14:00.351Z,22.67
2023-02-22T21:16:32.785Z,24.23
2023-02-22T21:19:07.457Z,24.60
2023-02-22T21:21:38.088Z,25.58
2023-02-22T21:24:08.662Z,25.80
2023-02-22T21:26:38.423Z,25.95
2023-02-22T21:29:09.054Z,25.95
2023-02-22T21:31:40.303Z,27.55
2023-02-22T21:34:17.490Z,25.92
2023-02-22T21:36:48.023Z,27.52
2023-02-22T21:39:20.740Z,26.27
2023-02-22T21:41:52.889Z,27.38
2023-02-22T21:44:23.427Z,26.42
2023-02-22T21:46:53.182Z,25.75
2023-02-22T21:49:25.794Z,25.95
2023-02-22T21:51:56.473Z,26.00
2023-02-22T21:54:27.946Z,24.80
2023-02-22T21:56:59.762Z,25.30
2023-02-22T21:59:29.534Z,24.48
2023-02-22T22:01:59.304Z,24.90
2023-02-22T22:04:34.920Z,24.88
2023-02-22T22:07:05.264Z,23.38
2023-02-22T22:09:38.005Z,23.10
2023-02-22T22:12:10.169Z,24.67
2023-02-22T22:14:40.537Z,22.92
2023-02-22T22:17:10.640Z,23.13
2023-02-22T22:19:44.434Z,22.75
2023-02-22T22:22:14.267Z,22.63
2023-02-22T22:24:45.950Z,22.58
2023-02-22T22:27:16.551Z,24.45
2023-02-22T22:29:46.415Z,23.40
2023-02-22T22:32:16.442Z,23.40
2023-02-22T22:34:49.323Z,23.67
2023-02-22T22:37:22.404Z,24.50
2023-02-22T22:39:52.724Z,23.75
2023-02-22T22:42:23.797Z,23.63
2023-02-22T22:44:54.455Z,24.42
2023-02-22T22:47:24.283Z,23.35
2023-02-22T22:50:01.349Z,22.35
2023-02-22T22:52:35.088Z,22.52
2023-02-22T22:55:07.051Z,21.48
2023-02-22T22:57:36.836Z,22.10
2023-02-22T23:00:26.444Z,21.40
2023-02-22T23:02:57.322Z,22.02
2023-02-22T23:05:31.048Z,21.58
2023-02-22T23:08:04.757Z,22.83
2023-02-22T23:10:39.225Z,23.50
2023-02-22T23:15:43.690Z,23.38
2023-02-22T23:18:14.724Z,22.33
2023-02-22T23:20:47.886Z,22.35
2023-02-22T23:23:17.621Z,22.42
2023-02-22T23:25:50.678Z,22.38
2023-02-22T23:28:23.723Z,22.08
2023-02-22T23:30:56.952Z,23.45
2023-02-22T23:33:26.763Z,23.83
2023-02-22T23:35:59.121Z,22.80
2023-02-22T23:38:28.897Z,23.27
2023-02-22T23:41:03.154Z,22.17
2023-02-22T23:43:34.125Z,23.02
2023-02-22T23:46:10.632Z,21.88
2023-02-22T23:48:43.124Z,20.17
2023-02-22T23:51:18.707Z,20.02
2023-02-22T23:53:49.612Z,20.13
2023-02-22T23:56:22.034Z,20.40
2023-02-22T23:58:52.735Z,20.02
